createdAt,value
2022-11-22T00:00:31.119Z,96633.50
2022-11-22T00:02:57.606Z,96638.84
2022-11-22T00:05:24.375Z,96628.63
2022-11-22T00:07:51.020Z,96624.44
2022-11-22T00:10:17.800Z,96628.94
2022-11-22T00:12:44.858Z,96633.38
2022-11-22T00:15:12.229Z,96618.59
2022-11-22T00:17:39.208Z,96617.78
2022-11-22T00:20:08.230Z,96621.25
2022-11-22T00:22:38.512Z,96618.63
2022-11-22T00:25:08.789Z,96620.34
2022-11-22T00:27:35.633Z,96604.72
2022-11-22T00:30:02.207Z,96609.91
2022-11-22T00:32:28.791Z,96604.81
2022-11-22T00:34:55.301Z,96602.88
2022-11-22T00:37:21.966Z,96610.53
2022-11-22T00:39:48.616Z,96614.59
2022-11-22T00:42:15.344Z,96615.25
2022-11-22T00:44:42.011Z,96614.41
2022-11-22T00:47:08.792Z,96616.09
2022-11-22T00:49:35.452Z,96615.13
2022-11-22T00:52:02.156Z,96612.50
2022-11-22T00:54:28.744Z,96609.16
2022-11-22T00:56:55.367Z,96605.47
2022-11-22T00:59:22.016Z,96594.19
2022-11-22T01:01:48.757Z,96589.81
2022-11-22T01:04:15.508Z,96582.75
2022-11-22T01:06:42.227Z,96575.88
2022-11-22T01:09:09.011Z,96575.09
2022-11-22T01:11:35.585Z,96579.44
2022-11-22T01:14:02.430Z,96583.03
2022-11-22T01:16:29.069Z,96583.09
2022-11-22T01:18:55.720Z,96585.00
2022-11-22T01:21:22.352Z,96579.16
2022-11-22T01:23:48.937Z,96582.69
2022-11-22T01:26:15.597Z,96588.22
2022-11-22T01:28:42.292Z,96577.19
2022-11-22T01:31:09.563Z,96571.31
2022-11-22T01:33:36.251Z,96572.25
2022-11-22T01:36:02.967Z,96567.09
2022-11-22T01:38:29.608Z,96562.59
2022-11-22T01:40:56.267Z,96559.22
2022-11-22T01:43:25.546Z,96561.78
2022-11-22T01:45:57.062Z,96557.50
2022-11-22T01:48:41.853Z,96559.94
2022-11-22T01:51:29.855Z,96547.81
2022-11-22T01:54:01.209Z,96554.81
2022-11-22T01:56:29.885Z,96561.75
2022-11-22T01:59:00.295Z,96555.75
2022-11-22T02:01:28.220Z,96562.56
2022-11-22T02:03:57.830Z,96560.00
2022-11-22T02:06:28.808Z,96549.53
2022-11-22T02:09:01.880Z,96537.06
2022-11-22T02:11:33.897Z,96528.31
2022-11-22T02:14:02.530Z,96532.97
2022-11-22T02:16:29.517Z,96524.91
2022-11-22T02:18:56.229Z,96515.41
2022-11-22T02:21:23.700Z,96513.56
2022-11-22T02:23:57.128Z,96522.19
2022-11-22T02:26:27.675Z,96522.41
2022-11-22T02:28:57.935Z,96518.97
2022-11-22T02:31:45.142Z,96517.56
2022-11-22T02:34:13.350Z,96526.28
2022-11-22T02:36:45.785Z,96528.25
2022-11-22T02:39:16.308Z,96522.16
2022-11-22T02:41:44.585Z,96535.19
2022-11-22T02:44:12.418Z,96530.91
2022-11-22T02:46:55.738Z,96533.50
2022-11-22T02:49:24.723Z,96538.75
2022-11-22T02:51:52.811Z,96537.06
2022-11-22T02:54:19.878Z,96548.28
2022-11-22T02:56:46.729Z,96544.75
2022-11-22T02:59:13.499Z,96541.91
2022-11-22T03:01:40.624Z,96538.44
2022-11-22T03:04:07.515Z,96536.66
2022-11-22T03:06:34.138Z,96540.13
2022-11-22T03:09:00.773Z,96542.69
2022-11-22T03:11:27.482Z,96535.72
2022-11-22T03:13:54.222Z,96539.19
2022-11-22T03:16:21.080Z,96540.06
2022-11-22T03:18:47.638Z,96533.88
2022-11-22T03:21:14.233Z,96541.91
2022-11-22T03:23:41.027Z,96533.25
2022-11-22T03:26:12.135Z,96535.75
2022-11-22T03:28:38.836Z,96545.56
2022-11-22T03:31:06.741Z,96537.75
2022-11-22T03:33:34.501Z,96535.41
2022-11-22T03:36:01.458Z,96547.50
2022-11-22T03:38:28.065Z,96557.97
2022-11-22T03:40:54.812Z,96557.19
2022-11-22T03:43:21.844Z,96550.22
2022-11-22T03:45:48.629Z,96549.28
2022-11-22T03:48:15.340Z,96548.34
2022-11-22T03:50:41.952Z,96554.22
2022-11-22T03:53:09.027Z,96547.44
2022-11-22T03:55:35.689Z,96540.53
2022-11-22T03:58:02.425Z,96536.44
2022-11-22T04:00:29.774Z,96539.22
2022-11-22T04:02:56.502Z,96527.06
2022-11-22T04:05:23.179Z,96518.63
2022-11-22T04:07:50.074Z,96506.94
2022-11-22T04:10:22.036Z,96507.41
2022-11-22T04:12:49.088Z,96505.50
2022-11-22T04:15:15.802Z,96508.78
2022-11-22T04:17:45.083Z,96520.06
2022-11-22T04:20:35.248Z,96521.72
2022-11-22T04:23:05.019Z,96520.00
2022-11-22T04:25:33.347Z,96518.25
2022-11-22T04:28:00.420Z,96522.66
2022-11-22T04:30:47.787Z,96524.44
2022-11-22T04:33:15.746Z,96524.50
2022-11-22T04:35:44.136Z,96526.91
2022-11-22T04:38:12.137Z,96519.06
2022-11-22T04:40:39.525Z,96517.94
2022-11-22T04:43:25.996Z,96511.84
2022-11-22T04:45:52.988Z,96513.59
2022-11-22T04:48:19.848Z,96498.91
2022-11-22T04:51:05.065Z,96500.59
2022-11-22T04:53:31.788Z,96499.63
2022-11-22T04:55:58.384Z,96490.94
2022-11-22T04:58:25.041Z,96489.09
2022-11-22T05:00:52.983Z,96492.56
2022-11-22T05:03:19.983Z,96496.72
2022-11-22T05:05:46.760Z,96507.09
2022-11-22T05:08:13.651Z,96518.34
2022-11-22T05:10:59.588Z,96517.59
2022-11-22T05:13:32.420Z,96531.56
2022-11-22T05:16:00.488Z,96537.44
2022-11-22T05:18:28.285Z,96540.50
2022-11-22T05:20:55.328Z,96524.81
2022-11-22T05:23:41.734Z,96525.41
2022-11-22T05:26:10.050Z,96521.06
2022-11-22T05:28:38.729Z,96530.56
2022-11-22T05:31:10.081Z,96532.09
2022-11-22T05:33:39.219Z,96520.84
2022-11-22T05:36:06.854Z,96534.84
2022-11-22T05:38:35.639Z,96536.53
2022-11-22T05:41:05.882Z,96533.22
2022-11-22T05:43:33.205Z,96534.91
2022-11-22T05:46:21.055Z,96524.72
2022-11-22T05:48:50.958Z,96519.59
2022-11-22T05:51:19.578Z,96536.81
2022-11-22T05:53:46.338Z,96535.03
2022-11-22T05:56:19.012Z,96542.50
2022-11-22T05:58:46.091Z,96546.03
2022-11-22T06:01:15.764Z,96543.72
2022-11-22T06:03:42.878Z,96543.53
2022-11-22T06:06:10.123Z,96541.13
2022-11-22T06:08:39.126Z,96542.94
2022-11-22T06:11:21.094Z,96547.97
2022-11-22T06:13:51.796Z,96557.44
2022-11-22T06:16:18.599Z,96565.19
2022-11-22T06:18:45.663Z,96560.84
2022-11-22T06:21:15.547Z,96562.81
2022-11-22T06:23:42.323Z,96573.75
2022-11-22T06:26:15.272Z,96565.78
2022-11-22T06:28:42.141Z,96580.03
2022-11-22T06:31:12.683Z,96566.84
2022-11-22T06:33:40.405Z,96573.03
2022-11-22T06:36:08.423Z,96572.22
2022-11-22T06:38:35.976Z,96578.03
2022-11-22T06:41:11.181Z,96583.44
2022-11-22T06:43:45.128Z,96584.53
2022-11-22T06:46:15.942Z,96586.13
2022-11-22T06:48:43.524Z,96591.47
2022-11-22T06:51:12.817Z,96586.84
2022-11-22T06:53:47.244Z,96585.91
2022-11-22T06:56:20.483Z,96589.28
2022-11-22T06:58:49.175Z,96590.25
2022-11-22T07:01:22.221Z,96592.13
2022-11-22T07:03:50.039Z,96608.44
2022-11-22T07:06:18.821Z,96599.91
2022-11-22T07:08:46.504Z,96603.25
2022-11-22T07:11:18.895Z,96607.66
2022-11-22T07:13:46.394Z,96606.38
2022-11-22T07:16:15.012Z,96612.69
2022-11-22T07:18:42.266Z,96607.38
2022-11-22T07:21:13.465Z,96614.19
2022-11-22T07:23:44.640Z,96624.56
2022-11-22T07:26:12.654Z,96626.03
2022-11-22T07:28:39.290Z,96633.91
2022-11-22T07:31:08.953Z,96626.94
2022-11-22T07:33:36.285Z,96626.88
2022-11-22T07:36:06.056Z,96637.13
2022-11-22T07:38:33.584Z,96639.84
2022-11-22T07:41:00.850Z,96644.94
2022-11-22T07:43:27.844Z,96642.06
2022-11-22T07:45:58.891Z,96648.38
2022-11-22T07:48:25.786Z,96644.75
2022-11-22T07:50:52.672Z,96649.69
2022-11-22T07:53:20.232Z,96650.50
2022-11-22T07:55:46.924Z,96646.19
2022-11-22T07:58:13.748Z,96652.91
2022-11-22T08:00:40.635Z,96659.91
2022-11-22T08:03:08.935Z,96661.50
2022-11-22T08:05:35.608Z,96664.84
2022-11-22T08:08:02.438Z,96663.03
2022-11-22T08:10:29.008Z,96669.72
2022-11-22T08:12:59.897Z,96667.03
2022-11-22T08:15:27.073Z,96658.09
2022-11-22T08:17:53.721Z,96663.97
2022-11-22T08:20:20.404Z,96670.31
2022-11-22T08:22:47.075Z,96678.00
2022-11-22T08:25:13.915Z,96684.91
2022-11-22T08:27:42.100Z,96691.75
2022-11-22T08:30:12.108Z,96697.03
2022-11-22T08:32:39.006Z,96689.88
2022-11-22T08:35:06.509Z,96699.28
2022-11-22T08:37:33.201Z,96688.97
2022-11-22T08:40:00.031Z,96694.06
2022-11-22T08:42:26.703Z,96701.78
2022-11-22T08:44:53.459Z,96716.66
2022-11-22T08:47:20.237Z,96719.19
2022-11-22T08:49:47.016Z,96731.22
2022-11-22T08:52:13.759Z,96731.13
2022-11-22T08:54:40.430Z,96732.72
2022-11-22T08:57:06.981Z,96742.84
2022-11-22T08:59:34.001Z,96742.00
2022-11-22T09:02:01.131Z,96740.00
2022-11-22T09:04:27.834Z,96747.78
2022-11-22T09:09:41.168Z,96759.94
2022-11-22T09:12:08.323Z,96763.34
2022-11-22T09:14:35.205Z,96765.09
2022-11-22T09:17:01.998Z,96760.66
2022-11-22T09:19:28.784Z,96757.94
2022-11-22T09:21:55.491Z,96764.84
2022-11-22T09:24:22.245Z,96761.94
2022-11-22T09:26:48.828Z,96761.03
2022-11-22T09:29:16.090Z,96762.72
2022-11-22T09:31:43.980Z,96764.25
2022-11-22T09:34:10.866Z,96766.06
2022-11-22T09:36:37.730Z,96765.84
2022-11-22T09:39:04.636Z,96765.84
2022-11-22T09:42:16.098Z,96760.91
2022-11-22T09:45:01.312Z,96770.28
2022-11-22T09:47:46.227Z,96761.34
2022-11-22T09:50:28.678Z,96760.16
2022-11-22T09:53:08.189Z,96766.03
2022-11-22T09:55:56.644Z,96764.34
2022-11-22T09:58:38.090Z,96777.19
2022-11-22T10:01:19.579Z,96758.59
2022-11-22T10:03:58.071Z,96759.00
2022-11-22T10:06:29.212Z,96763.59
2022-11-22T10:09:17.716Z,96763.16
2022-11-22T10:11:58.117Z,96755.09
2022-11-22T10:15:05.055Z,96753.97
2022-11-22T10:17:57.117Z,96756.59
2022-11-22T10:20:28.747Z,96753.84
2022-11-22T10:22:56.845Z,96754.75
2022-11-22T10:25:40.137Z,96751.47
2022-11-22T10:28:29.932Z,96750.91
2022-11-22T10:31:14.912Z,96754.28
2022-11-22T10:33:57.285Z,96752.25
2022-11-22T10:36:35.939Z,96762.59
2022-11-22T10:39:21.549Z,96759.44
2022-11-22T10:42:15.835Z,96756.72
2022-11-22T10:45:07.369Z,96753.50
2022-11-22T10:47:59.951Z,96755.31
2022-11-22T10:50:50.254Z,96751.91
2022-11-22T10:53:32.143Z,96754.94
2022-11-22T10:56:04.648Z,96750.81
2022-11-22T10:58:53.397Z,96750.84
2022-11-22T11:01:45.151Z,96745.22
2022-11-22T11:04:16.592Z,96749.53
2022-11-22T11:13:01.951Z,96748.81
2022-11-22T11:15:52.802Z,96747.97
2022-11-22T11:18:32.067Z,96747.66
2022-11-22T11:20:58.918Z,96744.31
2022-11-22T11:23:25.705Z,96744.25
2022-11-22T11:25:52.693Z,96744.66
2022-11-22T11:28:24.930Z,96743.72
2022-11-22T11:30:58.642Z,96743.06
2022-11-22T11:33:25.545Z,96739.59
2022-11-22T11:36:19.564Z,96738.34
2022-11-22T11:38:46.064Z,96736.38
2022-11-22T11:41:22.167Z,96733.50
2022-11-22T11:43:49.727Z,96728.88
2022-11-22T11:46:25.427Z,96726.06
2022-11-22T11:49:08.463Z,96728.81
2022-11-22T11:51:40.320Z,96733.50
2022-11-22T11:54:14.175Z,96727.75
2022-11-22T11:56:45.831Z,96724.59
2022-11-22T11:59:19.817Z,96733.78
2022-11-22T12:01:55.207Z,96739.13
2022-11-22T12:04:25.777Z,96728.34
2022-11-22T12:07:04.832Z,96739.81
2022-11-22T12:09:43.613Z,96739.13
2022-11-22T12:12:49.593Z,96743.19
2022-11-22T12:15:45.377Z,96746.19
2022-11-22T12:18:33.654Z,96745.03
2022-11-22T12:21:13.808Z,96741.59
2022-11-22T12:24:42.777Z,96738.22
2022-11-22T12:26:59.831Z,96737.81
2022-11-22T12:29:26.749Z,96736.97
2022-11-22T12:32:07.623Z,96748.22
2022-11-22T12:34:41.190Z,96742.75
2022-11-22T12:37:15.623Z,96750.28
2022-11-22T12:39:47.595Z,96750.91
2022-11-22T12:42:22.988Z,96761.75
2022-11-22T12:44:57.897Z,96765.00
2022-11-22T12:47:33.555Z,96757.06
2022-11-22T12:50:08.756Z,96761.16
2022-11-22T12:52:44.010Z,96765.75
2022-11-22T12:55:24.317Z,96757.00
2022-11-22T12:58:03.406Z,96757.63
2022-11-22T13:00:35.483Z,96751.16
2022-11-22T13:03:08.745Z,96746.91
2022-11-22T13:05:45.994Z,96740.69
2022-11-22T13:08:48.768Z,96736.81
2022-11-22T13:11:29.960Z,96744.97
2022-11-22T13:14:16.426Z,96750.59
2022-11-22T13:16:47.326Z,96740.22
2022-11-22T13:19:17.134Z,96743.75
2022-11-22T13:22:01.814Z,96738.28
2022-11-22T13:24:49.255Z,96740.38
2022-11-22T13:27:25.858Z,96740.06
2022-11-22T13:29:56.840Z,96740.41
2022-11-22T13:32:27.089Z,96736.97
2022-11-22T13:35:17.674Z,96736.34
2022-11-22T13:37:50.848Z,96734.75
2022-11-22T13:40:31.837Z,96725.88
2022-11-22T13:43:18.005Z,96729.09
2022-11-22T13:45:55.800Z,96726.03
2022-11-22T13:48:57.600Z,96721.59
2022-11-22T13:51:51.866Z,96729.63
2022-11-22T13:54:41.697Z,96725.75
2022-11-22T13:57:20.595Z,96722.66
2022-11-22T13:59:47.255Z,96714.75
2022-11-22T14:02:31.826Z,96719.84
2022-11-22T14:04:59.334Z,96714.91
2022-11-22T14:07:34.325Z,96719.41
2022-11-22T14:10:02.413Z,96726.19
2022-11-22T14:12:45.769Z,96722.72
2022-11-22T14:15:27.562Z,96719.91
2022-11-22T14:18:09.319Z,96724.78
2022-11-22T14:20:45.329Z,96727.19
2022-11-22T14:23:30.391Z,96724.06
2022-11-22T14:26:30.543Z,96729.94
2022-11-22T14:29:21.760Z,96728.50
2022-11-22T14:31:56.209Z,96732.63
2022-11-22T14:34:28.264Z,96736.00
2022-11-22T14:37:13.095Z,96728.66
2022-11-22T14:39:45.597Z,96731.13
2022-11-22T14:42:47.256Z,96731.44
2022-11-22T14:45:31.116Z,96731.53
2022-11-22T14:48:45.089Z,96737.38
2022-11-22T14:51:31.924Z,96746.44
2022-11-22T14:54:01.628Z,96734.31
2022-11-22T14:56:38.079Z,96750.31
2022-11-22T14:59:30.473Z,96758.69
2022-11-22T15:02:28.412Z,96753.03
2022-11-22T15:09:11.956Z,96763.16
2022-11-22T15:09:20.508Z,96757.56
2022-11-22T15:10:48.489Z,96774.72
2022-11-22T15:13:37.189Z,96770.44
2022-11-22T15:59:42.176Z,96849.22
2022-11-22T16:02:20.503Z,96844.97
2022-11-22T16:06:10.195Z,96853.63
2022-11-22T16:07:47.235Z,96854.44
2022-11-22T16:10:16.652Z,96872.31
2022-11-22T16:12:43.483Z,96864.22
2022-11-22T16:15:30.505Z,96869.47
2022-11-22T16:18:10.357Z,96867.53
2022-11-22T16:20:38.738Z,96874.44
2022-11-22T16:23:12.544Z,96871.09
2022-11-22T16:25:42.659Z,96865.03
2022-11-22T16:28:38.084Z,96869.63
2022-11-22T16:31:17.483Z,96861.25
2022-11-22T16:33:44.695Z,96870.13
2022-11-22T16:36:14.737Z,96869.63
2022-11-22T16:38:42.545Z,96866.19
2022-11-22T16:41:26.579Z,96871.38
2022-11-22T16:43:59.675Z,96877.28
2022-11-22T16:46:26.346Z,96871.63
2022-11-22T16:48:53.386Z,96871.19
2022-11-22T16:51:24.165Z,96877.94
2022-11-22T16:53:53.467Z,96876.88
2022-11-22T16:56:23.041Z,96875.78
2022-11-22T16:58:51.223Z,96879.97
2022-11-22T17:01:21.850Z,96880.50
2022-11-22T17:03:52.153Z,96881.75
2022-11-22T17:06:21.157Z,96883.63
2022-11-22T17:08:49.938Z,96877.63
2022-11-22T17:11:19.150Z,96881.94
2022-11-22T17:13:46.347Z,96883.47
2022-11-22T17:16:14.286Z,96888.66
2022-11-22T17:18:40.870Z,96887.88
2022-11-22T17:21:20.966Z,96889.69
2022-11-22T17:23:48.503Z,96887.50
2022-11-22T17:26:15.220Z,96891.69
2022-11-22T17:28:42.023Z,96885.63
2022-11-22T17:31:17.943Z,96886.19
2022-11-22T17:33:44.988Z,96887.03
2022-11-22T17:36:21.184Z,96881.91
2022-11-22T17:38:47.917Z,96884.44
2022-11-22T17:41:14.622Z,96896.66
2022-11-22T17:43:41.231Z,96893.22
2022-11-22T17:46:07.825Z,96890.63
2022-11-22T17:48:34.543Z,96887.13
2022-11-22T17:51:08.739Z,96890.41
2022-11-22T17:53:35.620Z,96889.53
2022-11-22T17:56:10.557Z,96895.59
2022-11-22T17:58:38.717Z,96895.84
2022-11-22T18:01:09.736Z,96896.69
2022-11-22T18:03:36.869Z,96882.00
2022-11-22T18:06:03.818Z,96895.13
2022-11-22T18:08:31.004Z,96887.97
2022-11-22T18:11:00.003Z,96891.63
2022-11-22T18:13:31.400Z,96889.19
2022-11-22T18:16:03.522Z,96897.38
2022-11-22T18:18:55.747Z,96890.38
2022-11-22T18:21:17.946Z,96883.75
2022-11-22T18:23:45.515Z,96882.00
2022-11-22T18:29:35.520Z,96892.63
2022-11-22T18:31:54.295Z,96890.94
2022-11-22T18:34:22.665Z,96899.59
2022-11-22T18:37:01.251Z,96904.16
2022-11-22T18:39:31.194Z,96902.25
2022-11-22T18:41:58.241Z,96899.78
2022-11-22T18:44:25.083Z,96906.97
2022-11-22T18:46:51.818Z,96903.47
2022-11-22T18:49:18.556Z,96903.53
2022-11-22T18:51:45.302Z,96910.63
2022-11-22T18:54:12.009Z,96905.41
2022-11-22T18:56:40.744Z,96905.56
2022-11-22T18:59:10.112Z,96909.97
2022-11-22T19:01:36.822Z,96898.91
2022-11-22T19:04:03.687Z,96896.88
2022-11-22T19:06:30.832Z,96889.84
2022-11-22T19:08:57.728Z,96882.03
2022-11-22T19:11:24.436Z,96895.06
2022-11-22T19:13:51.146Z,96896.97
2022-11-22T19:16:21.518Z,96888.09
2022-11-22T19:18:48.987Z,96895.84
2022-11-22T19:21:18.804Z,96893.31
2022-11-22T19:23:45.404Z,96895.06
2022-11-22T19:26:17.531Z,96895.72
2022-11-22T19:28:44.175Z,96897.66
2022-11-22T19:31:13.831Z,96899.41
2022-11-22T19:33:40.681Z,96904.63
2022-11-22T19:36:11.637Z,96903.78
2022-11-22T19:38:38.253Z,96894.31
2022-11-22T19:41:13.019Z,96897.66
2022-11-22T19:43:39.893Z,96896.81
2022-11-22T19:46:06.915Z,96895.00
2022-11-22T19:48:35.495Z,96900.13
2022-11-22T19:51:14.052Z,96904.38
2022-11-22T19:53:42.157Z,96902.81
2022-11-22T19:56:19.555Z,96903.63
2022-11-22T19:58:54.202Z,96903.47
2022-11-22T20:01:23.112Z,96902.34
2022-11-22T20:03:55.009Z,96911.13
2022-11-22T20:06:22.001Z,96926.69
2022-11-22T20:08:48.975Z,96915.47
2022-11-22T20:11:18.948Z,96916.44
2022-11-22T20:13:48.418Z,96920.53
2022-11-22T20:16:17.895Z,96922.50
2022-11-22T20:18:44.565Z,96927.69
2022-11-22T20:21:11.705Z,96930.34
2022-11-22T20:23:38.916Z,96928.91
2022-11-22T20:26:11.308Z,96928.06
2022-11-22T20:28:39.121Z,96928.09
2022-11-22T20:31:13.792Z,96924.59
2022-11-22T20:33:43.972Z,96929.50
2022-11-22T20:36:13.244Z,96918.03
2022-11-22T20:38:42.039Z,96929.50
2022-11-22T20:41:10.816Z,96935.63
2022-11-22T20:43:37.907Z,96927.78
2022-11-22T20:46:07.699Z,96937.41
2022-11-22T20:48:35.682Z,96945.19
2022-11-22T20:51:05.477Z,96936.47
2022-11-22T20:53:32.654Z,96951.94
2022-11-22T20:55:59.268Z,96953.13
2022-11-22T20:58:28.249Z,96948.88
2022-11-22T21:00:56.360Z,96950.59
2022-11-22T21:03:23.572Z,96956.59
2022-11-22T21:05:52.287Z,96959.25
2022-11-22T21:08:19.610Z,96965.16
2022-11-22T21:10:46.241Z,96955.59
2022-11-22T21:13:12.904Z,96966.25
2022-11-22T21:15:39.521Z,96968.91
2022-11-22T21:20:52.808Z,96966.88
2022-11-22T21:23:19.430Z,96976.63
2022-11-22T21:25:46.527Z,96959.84
2022-11-22T21:28:13.117Z,96969.09
2022-11-22T21:30:39.577Z,96974.97
2022-11-22T21:33:06.055Z,96973.81
2022-11-22T21:35:32.554Z,96973.91
2022-11-22T21:37:59.017Z,96968.44
2022-11-22T21:40:25.773Z,96963.69
2022-11-22T21:42:52.341Z,96966.03
2022-11-22T21:45:19.028Z,96969.44
2022-11-22T21:47:48.510Z,96972.88
2022-11-22T21:50:15.590Z,96970.97
2022-11-22T21:52:42.766Z,96970.72
2022-11-22T21:55:09.957Z,96975.09
2022-11-22T21:57:36.601Z,96969.94
2022-11-22T22:00:05.011Z,96965.44
2022-11-22T22:02:33.041Z,96986.09
2022-11-22T22:04:59.748Z,96977.47
2022-11-22T22:10:14.362Z,96992.38
2022-11-22T22:12:41.150Z,96993.13
2022-11-22T22:15:10.838Z,97001.84
2022-11-22T22:17:37.437Z,96989.66
2022-11-22T22:20:04.789Z,96992.16
2022-11-22T22:22:31.374Z,96986.19
2022-11-22T22:24:58.144Z,96993.22
2022-11-22T22:27:24.760Z,96994.75
2022-11-22T22:29:51.326Z,96984.50
2022-11-22T22:32:17.940Z,96992.22
2022-11-22T22:34:44.496Z,96994.94
2022-11-22T22:37:11.111Z,96991.38
2022-11-22T22:39:37.687Z,96990.56
2022-11-22T22:42:04.448Z,96995.66
2022-11-22T22:44:32.791Z,96999.75
2022-11-22T22:46:59.594Z,96998.16
2022-11-22T22:49:26.297Z,96997.22
2022-11-22T22:51:55.248Z,96993.69
2022-11-22T22:54:22.516Z,96980.63
2022-11-22T22:56:49.636Z,96977.19
2022-11-22T22:59:16.222Z,96976.13
2022-11-22T23:01:42.972Z,96975.03
2022-11-22T23:04:09.951Z,96980.50
2022-11-22T23:06:38.566Z,96983.31
2022-11-22T23:09:08.376Z,96991.34
2022-11-22T23:11:55.053Z,96985.28
2022-11-22T23:14:24.075Z,96995.78
2022-11-22T23:16:55.930Z,96988.53
2022-11-22T23:19:24.343Z,96991.94
2022-11-22T23:21:51.043Z,96996.03
2022-11-22T23:24:17.858Z,97001.03
2022-11-22T23:26:44.421Z,96996.63
2022-11-22T23:29:11.200Z,97000.16
2022-11-22T23:31:38.135Z,96989.06
2022-11-22T23:34:04.921Z,96989.97
2022-11-22T23:36:34.802Z,96998.00
2022-11-22T23:39:04.298Z,96992.25
2022-11-22T23:41:30.903Z,97004.31
2022-11-22T23:43:57.556Z,96999.19
2022-11-22T23:46:27.645Z,96991.41
2022-11-22T23:48:59.239Z,96996.94
2022-11-22T23:51:28.180Z,96993.63
2022-11-22T23:53:56.307Z,96992.75
2022-11-22T23:56:23.552Z,96998.00
2022-11-22T23:58:51.100Z,96997.44
